createdAt,value
2023-05-03T00:00:25.915Z,1.09
2023-05-03T00:01:25.984Z,1.10
2023-05-03T00:02:26.133Z,1.10
2023-05-03T00:03:26.096Z,1.11
2023-05-03T00:04:26.049Z,1.09
2023-05-03T00:05:26.174Z,1.12
2023-05-03T00:06:26.169Z,1.08
2023-05-03T00:07:26.182Z,1.11
2023-05-03T00:08:26.172Z,1.11
2023-05-03T00:09:26.302Z,1.09
2023-05-03T00:10:26.286Z,1.11
2023-05-03T00:11:26.296Z,1.12
2023-05-03T00:12:26.364Z,1.11
2023-05-03T00:13:26.361Z,1.09
2023-05-03T00:14:26.444Z,1.12
2023-05-03T00:15:26.460Z,1.12
2023-05-03T00:16:26.512Z,1.10
2023-05-03T00:17:26.489Z,1.11
2023-05-03T00:18:26.574Z,1.11
2023-05-03T00:19:31.513Z,1.13
2023-05-03T00:20:27.586Z,1.13
2023-05-03T00:21:26.570Z,1.13
2023-05-03T00:22:26.578Z,1.11
2023-05-03T00:23:26.613Z,1.12
2023-05-03T00:24:26.543Z,1.10
2023-05-03T00:25:26.546Z,1.12
2023-05-03T00:26:26.532Z,1.12
2023-05-03T00:27:26.502Z,1.12
2023-05-03T00:28:26.514Z,1.12
2023-05-03T00:29:26.534Z,1.11
2023-05-03T00:30:26.549Z,1.10
2023-05-03T00:31:26.531Z,1.11
2023-05-03T00:32:26.519Z,1.12
2023-05-03T00:33:26.496Z,1.14
2023-05-03T00:34:26.512Z,1.12
2023-05-03T00:35:26.512Z,1.13
2023-05-03T00:36:26.588Z,1.12
2023-05-03T00:37:26.635Z,1.12
2023-05-03T00:38:26.689Z,1.13
2023-05-03T00:39:26.708Z,1.11
2023-05-03T00:40:26.735Z,1.12
2023-05-03T00:41:26.761Z,1.10
2023-05-03T00:42:26.831Z,1.11
2023-05-03T00:43:26.847Z,1.13
2023-05-03T00:44:26.883Z,1.12
2023-05-03T00:45:26.952Z,1.14
2023-05-03T00:46:27.015Z,1.15
2023-05-03T00:47:27.017Z,1.13
2023-05-03T00:48:27.075Z,1.11
2023-05-03T00:49:27.117Z,1.12
2023-05-03T00:50:27.140Z,1.12
2023-05-03T00:51:27.210Z,1.11
2023-05-03T00:52:27.236Z,1.13
2023-05-03T00:53:27.256Z,1.12
2023-05-03T00:54:27.305Z,1.13
2023-05-03T00:55:27.335Z,1.13
2023-05-03T00:56:28.312Z,1.12
2023-05-03T00:57:27.436Z,1.13
2023-05-03T00:58:27.522Z,1.12
2023-05-03T00:59:27.544Z,1.13
2023-05-03T01:00:27.572Z,1.15
2023-05-03T01:01:27.641Z,1.14
2023-05-03T01:02:27.730Z,1.13
2023-05-03T01:03:27.779Z,1.15
2023-05-03T01:04:27.755Z,1.12
2023-05-03T01:05:27.739Z,1.13
2023-05-03T01:06:27.931Z,1.14
2023-05-03T01:07:27.870Z,1.13
2023-05-03T01:08:27.913Z,1.10
2023-05-03T01:09:27.972Z,1.12
2023-05-03T01:10:27.980Z,1.14
2023-05-03T01:11:28.045Z,1.11
2023-05-03T01:12:28.102Z,1.13
2023-05-03T01:13:28.086Z,1.12
2023-05-03T01:14:28.180Z,1.12
2023-05-03T01:15:28.194Z,1.14
2023-05-03T01:16:28.275Z,1.12
2023-05-03T01:17:28.433Z,1.13
2023-05-03T01:18:28.416Z,1.13
2023-05-03T01:19:28.403Z,1.15
2023-05-03T01:20:28.422Z,1.14
2023-05-03T01:21:28.436Z,1.15
2023-05-03T01:22:28.527Z,1.14
2023-05-03T01:23:28.566Z,1.15
2023-05-03T01:24:28.598Z,1.15
2023-05-03T01:25:28.667Z,1.14
2023-05-03T01:26:28.729Z,1.14
2023-05-03T01:27:28.767Z,1.14
2023-05-03T01:28:28.799Z,1.13
2023-05-03T01:29:28.806Z,1.15
2023-05-03T01:30:28.944Z,1.14
2023-05-03T01:31:28.961Z,1.15
2023-05-03T01:32:29.007Z,1.15
2023-05-03T01:33:29.006Z,1.16
2023-05-03T01:34:29.076Z,1.15
2023-05-03T01:35:29.255Z,1.12
2023-05-03T01:36:29.130Z,1.16
2023-05-03T01:37:29.156Z,1.13
2023-05-03T01:38:29.249Z,1.14
2023-05-03T01:39:29.302Z,1.16
2023-05-03T01:40:29.466Z,1.14
2023-05-03T01:41:29.421Z,1.16
2023-05-03T01:42:29.409Z,1.15
2023-05-03T01:43:29.509Z,1.13
2023-05-03T01:44:29.521Z,1.14
2023-05-03T01:45:29.603Z,1.15
2023-05-03T01:46:29.729Z,1.15
2023-05-03T01:47:29.703Z,1.14
2023-05-03T01:48:29.728Z,1.16
2023-05-03T01:49:29.797Z,1.17
2023-05-03T01:50:29.867Z,1.17
2023-05-03T01:51:30.066Z,1.17
2023-05-03T01:52:29.880Z,1.14
2023-05-03T01:53:29.978Z,1.16
2023-05-03T01:54:30.028Z,1.16
2023-05-03T01:55:30.119Z,1.15
2023-05-03T01:56:30.093Z,1.17
2023-05-03T01:57:30.261Z,1.16
2023-05-03T01:58:30.208Z,1.15
2023-05-03T01:59:30.249Z,1.16
2023-05-03T02:00:30.269Z,1.14
2023-05-03T02:01:30.331Z,1.15
2023-05-03T02:02:30.412Z,1.15
2023-05-03T02:03:30.410Z,1.14
2023-05-03T02:04:30.531Z,1.15
2023-05-03T02:05:30.488Z,1.14
2023-05-03T02:06:30.572Z,1.17
2023-05-03T02:07:30.568Z,1.14
2023-05-03T02:08:30.613Z,1.16
2023-05-03T02:09:30.697Z,1.15
2023-05-03T02:10:30.715Z,1.18
2023-05-03T02:11:30.806Z,1.14
2023-05-03T02:12:30.811Z,1.17
2023-05-03T02:13:30.866Z,1.14
2023-05-03T02:14:30.892Z,1.14
2023-05-03T02:15:30.939Z,1.18
2023-05-03T02:16:31.028Z,1.16
2023-05-03T02:17:31.030Z,1.15
2023-05-03T02:18:31.059Z,1.15
2023-05-03T02:19:31.168Z,1.16
2023-05-03T02:20:31.173Z,1.17
2023-05-03T02:21:31.191Z,1.17
2023-05-03T02:22:31.291Z,1.18
2023-05-03T02:23:31.292Z,1.19
2023-05-03T02:24:31.331Z,1.15
2023-05-03T02:25:31.384Z,1.16
2023-05-03T02:26:31.421Z,1.16
2023-05-03T02:27:31.498Z,1.17
2023-05-03T02:28:31.636Z,1.18
2023-05-03T02:29:31.610Z,1.17
2023-05-03T02:30:31.662Z,1.18
2023-05-03T02:31:31.809Z,1.17
2023-05-03T02:32:31.724Z,1.16
2023-05-03T02:33:31.772Z,1.15
2023-05-03T02:34:31.908Z,1.16
2023-05-03T02:35:31.910Z,1.16
2023-05-03T02:36:31.963Z,1.14
2023-05-03T02:37:32.020Z,1.17
2023-05-03T02:38:32.042Z,1.17
2023-05-03T02:39:32.082Z,1.15
2023-05-03T02:40:32.125Z,1.19
2023-05-03T02:41:32.195Z,1.20
2023-05-03T02:42:32.201Z,1.19
2023-05-03T02:43:32.284Z,1.15
2023-05-03T02:44:33.708Z,1.19
2023-05-03T02:45:32.394Z,1.18
2023-05-03T02:46:32.499Z,1.15
2023-05-03T02:47:32.638Z,1.17
2023-05-03T02:48:32.558Z,1.17
2023-05-03T02:49:32.606Z,1.14
2023-05-03T02:50:32.608Z,1.15
2023-05-03T02:51:32.690Z,1.16
2023-05-03T02:52:32.716Z,1.17
2023-05-03T02:53:32.756Z,1.16
2023-05-03T02:54:32.848Z,1.19
2023-05-03T02:55:32.903Z,1.17
2023-05-03T02:56:33.087Z,1.17
2023-05-03T02:57:32.973Z,1.18
2023-05-03T02:58:33.028Z,1.20
2023-05-03T02:59:33.099Z,1.17
2023-05-03T03:00:33.192Z,1.20
2023-05-03T03:01:33.252Z,1.19
2023-05-03T03:02:33.366Z,1.17
2023-05-03T03:03:33.370Z,1.16
2023-05-03T03:04:33.374Z,1.19
2023-05-03T03:05:33.428Z,1.17
2023-05-03T03:06:33.496Z,1.19
2023-05-03T03:07:33.514Z,1.16
2023-05-03T03:08:33.557Z,1.18
2023-05-03T03:09:33.590Z,1.19
2023-05-03T03:10:33.660Z,1.17
2023-05-03T03:11:33.707Z,1.18
2023-05-03T03:12:33.786Z,1.17
2023-05-03T03:13:33.786Z,1.19
2023-05-03T03:14:33.890Z,1.17
2023-05-03T03:15:33.909Z,1.20
2023-05-03T03:16:34.004Z,1.19
2023-05-03T03:17:34.103Z,1.18
2023-05-03T03:18:34.056Z,1.21
2023-05-03T03:19:34.136Z,1.20
2023-05-03T03:20:34.233Z,1.19
2023-05-03T03:21:34.255Z,1.20
2023-05-03T03:22:34.292Z,1.17
2023-05-03T03:23:34.314Z,1.21
2023-05-03T03:24:34.434Z,1.15
2023-05-03T03:25:34.488Z,1.18
2023-05-03T03:26:34.497Z,1.17
2023-05-03T03:27:34.553Z,1.18
2023-05-03T03:28:34.618Z,1.20
2023-05-03T03:29:34.675Z,1.21
2023-05-03T03:30:34.733Z,1.19
2023-05-03T03:31:34.884Z,1.18
2023-05-03T03:32:34.876Z,1.20
2023-05-03T03:33:34.923Z,1.19
2023-05-03T03:34:34.986Z,1.17
2023-05-03T03:35:35.025Z,1.18
2023-05-03T03:36:35.068Z,1.20
2023-05-03T03:37:35.175Z,1.20
2023-05-03T03:38:35.222Z,1.19
2023-05-03T03:39:35.256Z,1.20
2023-05-03T03:40:35.312Z,1.18
2023-05-03T03:41:35.412Z,1.20
2023-05-03T03:42:35.456Z,1.19
2023-05-03T03:43:35.500Z,1.19
2023-05-03T03:44:35.566Z,1.18
2023-05-03T03:45:35.604Z,1.19
2023-05-03T03:46:35.792Z,1.20
2023-05-03T03:47:35.735Z,1.19
2023-05-03T03:48:35.791Z,1.22
2023-05-03T03:49:35.845Z,1.20
2023-05-03T03:50:35.910Z,1.19
2023-05-03T03:51:35.999Z,1.19
2023-05-03T03:52:36.033Z,1.17
2023-05-03T03:53:36.115Z,1.22
2023-05-03T03:54:36.177Z,1.18
2023-05-03T03:55:36.226Z,1.23
2023-05-03T03:56:36.286Z,1.17
2023-05-03T03:57:36.358Z,1.20
2023-05-03T03:58:36.409Z,1.17
2023-05-03T03:59:36.463Z,1.18
2023-05-03T04:00:36.501Z,1.20
2023-05-03T04:01:36.640Z,1.20
2023-05-03T04:02:37.441Z,1.19
2023-05-03T04:03:36.812Z,1.20
2023-05-03T04:04:36.788Z,1.21
2023-05-03T04:05:36.776Z,1.19
2023-05-03T04:06:36.963Z,1.19
2023-05-03T04:07:36.936Z,1.18
2023-05-03T04:08:36.955Z,1.19
2023-05-03T04:09:37.042Z,1.19
2023-05-03T04:10:37.157Z,1.19
2023-05-03T04:11:37.166Z,1.19
2023-05-03T04:12:37.201Z,1.18
2023-05-03T04:13:37.273Z,1.19
2023-05-03T04:14:37.319Z,1.17
2023-05-03T04:15:37.351Z,1.20
2023-05-03T04:16:37.452Z,1.21
2023-05-03T04:17:37.535Z,1.18
2023-05-03T04:18:37.564Z,1.18
2023-05-03T04:19:37.639Z,1.20
2023-05-03T04:20:37.663Z,1.14
2023-05-03T04:21:37.730Z,1.15
2023-05-03T04:22:37.774Z,1.16
2023-05-03T04:23:37.881Z,1.15
2023-05-03T04:24:37.883Z,1.17
2023-05-03T04:25:37.974Z,1.18
2023-05-03T04:26:38.010Z,1.17
2023-05-03T04:27:38.088Z,1.17
2023-05-03T04:28:38.190Z,1.14
2023-05-03T04:29:38.204Z,1.15
2023-05-03T04:30:38.301Z,1.15
2023-05-03T04:31:38.343Z,1.14
2023-05-03T04:32:38.507Z,1.16
2023-05-03T04:33:38.467Z,1.18
2023-05-03T04:34:38.493Z,1.11
2023-05-03T04:35:38.620Z,1.12
2023-05-03T04:36:38.673Z,1.15
2023-05-03T04:37:38.744Z,1.17
2023-05-03T04:38:38.737Z,1.16
2023-05-03T04:39:38.806Z,1.13
2023-05-03T04:40:38.845Z,1.13
2023-05-03T04:41:38.957Z,1.14
2023-05-03T04:42:39.003Z,1.11
2023-05-03T04:43:39.068Z,1.11
2023-05-03T04:44:39.118Z,1.11
2023-05-03T04:45:39.178Z,1.11
2023-05-03T04:46:39.311Z,1.12
2023-05-03T04:47:39.390Z,1.13
2023-05-03T04:48:39.405Z,1.10
2023-05-03T04:49:39.420Z,1.10
2023-05-03T04:50:39.469Z,1.12
2023-05-03T04:51:39.584Z,1.11
2023-05-03T04:52:39.653Z,1.13
2023-05-03T04:53:39.657Z,1.10
2023-05-03T04:54:39.760Z,1.11
2023-05-03T04:55:39.817Z,1.10
2023-05-03T04:56:39.885Z,1.12
2023-05-03T04:57:39.938Z,1.09
2023-05-03T04:58:39.976Z,1.10
2023-05-03T04:59:39.999Z,1.10
2023-05-03T05:00:40.110Z,1.10
2023-05-03T05:01:40.202Z,1.11
2023-05-03T05:02:40.278Z,1.09
2023-05-03T05:03:40.417Z,1.09
2023-05-03T05:04:40.309Z,1.11
2023-05-03T05:05:40.408Z,1.10
2023-05-03T05:06:40.484Z,1.08
2023-05-03T05:07:40.510Z,1.10
2023-05-03T05:08:40.571Z,1.10
2023-05-03T05:09:40.622Z,1.10
2023-05-03T05:10:40.736Z,1.09
2023-05-03T05:11:40.831Z,1.09
2023-05-03T05:12:40.886Z,1.07
2023-05-03T05:13:40.910Z,1.09
2023-05-03T05:14:40.964Z,1.06
2023-05-03T05:15:41.028Z,1.11
2023-05-03T05:16:41.240Z,1.11
2023-05-03T05:17:41.455Z,1.09
2023-05-03T05:18:41.188Z,1.08
2023-05-03T05:19:41.306Z,1.06
2023-05-03T05:20:41.298Z,1.08
2023-05-03T05:21:41.426Z,1.10
2023-05-03T05:22:41.460Z,1.07
2023-05-03T05:23:41.568Z,1.08
2023-05-03T05:24:41.592Z,1.06
2023-05-03T05:25:41.612Z,1.06
2023-05-03T05:26:41.693Z,1.08
2023-05-03T05:27:41.773Z,1.05
2023-05-03T05:28:41.835Z,1.04
2023-05-03T05:29:41.883Z,1.07
2023-05-03T05:30:41.949Z,1.05
2023-05-03T05:31:42.062Z,1.05
2023-05-03T05:32:42.150Z,1.05
2023-05-03T05:33:42.110Z,1.07
2023-05-03T05:34:45.623Z,1.08
2023-05-03T05:35:42.247Z,1.09
2023-05-03T05:36:42.168Z,0.94
2023-05-03T05:37:42.818Z,0.81
2023-05-03T05:38:42.140Z,0.73
2023-05-03T05:39:42.291Z,0.68
2023-05-03T05:40:42.168Z,0.70
2023-05-03T05:41:42.181Z,0.69
2023-05-03T05:42:42.353Z,0.67
2023-05-03T05:43:42.112Z,0.64
2023-05-03T05:44:42.110Z,0.62
2023-05-03T05:45:42.138Z,0.59
2023-05-03T05:46:42.209Z,0.60
2023-05-03T05:47:42.119Z,0.61
2023-05-03T05:48:42.112Z,0.64
2023-05-03T05:49:42.058Z,0.64
2023-05-03T05:50:42.167Z,0.62
2023-05-03T05:51:42.234Z,0.64
2023-05-03T05:52:42.094Z,0.63
2023-05-03T05:53:42.090Z,0.63
2023-05-03T05:54:42.068Z,0.70
2023-05-03T05:55:42.080Z,0.67
2023-05-03T05:56:42.226Z,0.72
2023-05-03T05:57:42.106Z,0.76
2023-05-03T05:58:42.058Z,0.78
2023-05-03T05:59:42.093Z,0.77
2023-05-03T06:00:42.015Z,0.77
2023-05-03T06:01:42.160Z,0.79
2023-05-03T06:02:42.246Z,0.82
2023-05-03T06:03:42.200Z,0.84
2023-05-03T06:04:42.041Z,0.84
2023-05-03T06:05:42.185Z,0.91
2023-05-03T06:06:43.840Z,0.94
2023-05-03T06:07:42.087Z,0.97
2023-05-03T06:08:42.041Z,1.00
2023-05-03T06:09:41.950Z,0.99
2023-05-03T06:10:41.969Z,1.03
2023-05-03T06:11:41.966Z,1.08
2023-05-03T06:12:41.976Z,1.12
2023-05-03T06:13:42.730Z,1.15
2023-05-03T06:14:51.727Z,1.22
2023-05-03T06:15:42.924Z,1.22
2023-05-03T06:16:41.988Z,1.23
2023-05-03T06:17:41.953Z,1.26
2023-05-03T06:18:41.908Z,1.31
2023-05-03T06:19:44.443Z,1.40
2023-05-03T06:20:41.935Z,1.45
2023-05-03T06:21:41.891Z,1.49
2023-05-03T06:22:41.906Z,1.50
2023-05-03T06:23:41.904Z,1.53
2023-05-03T06:24:41.842Z,1.56
2023-05-03T06:25:41.853Z,1.62
2023-05-03T06:26:41.830Z,1.61
2023-05-03T06:27:41.834Z,1.59
2023-05-03T06:28:41.812Z,1.65
2023-05-03T06:29:41.825Z,1.68
2023-05-03T06:30:41.896Z,1.79
2023-05-03T06:31:41.921Z,1.82
2023-05-03T06:32:41.822Z,1.89
2023-05-03T06:33:41.760Z,1.89
2023-05-03T06:34:41.815Z,1.89
2023-05-03T06:35:41.787Z,1.99
2023-05-03T06:36:41.793Z,2.09
2023-05-03T06:37:41.769Z,2.02
2023-05-03T06:38:41.774Z,1.46
2023-05-03T06:39:41.737Z,1.24
2023-05-03T06:40:41.704Z,1.13
2023-05-03T06:41:41.772Z,1.06
2023-05-03T06:42:41.736Z,1.01
2023-05-03T06:43:41.708Z,0.89
2023-05-03T06:44:41.724Z,0.84
2023-05-03T06:45:42.406Z,0.77
2023-05-03T06:46:41.766Z,0.73
2023-05-03T06:47:41.783Z,0.69
2023-05-03T06:48:41.770Z,0.66
2023-05-03T06:49:41.715Z,0.62
2023-05-03T06:50:41.730Z,0.58
2023-05-03T06:51:41.726Z,0.55
2023-05-03T06:52:41.698Z,0.52
2023-05-03T06:53:41.739Z,0.50
2023-05-03T06:54:41.748Z,0.50
2023-05-03T06:55:41.643Z,0.50
2023-05-03T06:56:41.727Z,0.50
2023-05-03T06:57:41.664Z,0.50
2023-05-03T06:58:41.738Z,0.51
2023-05-03T06:59:41.627Z,0.51
2023-05-03T07:00:41.606Z,0.50
2023-05-03T07:01:41.747Z,0.51
2023-05-03T07:02:41.666Z,0.52
2023-05-03T07:03:42.200Z,0.50
2023-05-03T07:04:41.600Z,0.50
2023-05-03T07:05:41.615Z,0.51
2023-05-03T07:06:55.551Z,0.51
2023-05-03T07:07:42.552Z,0.51
2023-05-03T07:08:41.881Z,0.51
2023-05-03T07:09:43.605Z,0.48
2023-05-03T07:10:41.812Z,0.49
2023-05-03T07:11:41.818Z,0.48
2023-05-03T07:12:41.698Z,0.50
2023-05-03T07:13:41.799Z,0.49
2023-05-03T07:14:41.790Z,0.51
2023-05-03T07:15:41.851Z,0.54
2023-05-03T07:16:42.008Z,0.60
2023-05-03T07:17:41.950Z,0.62
2023-05-03T07:18:42.001Z,0.65
2023-05-03T07:19:42.038Z,0.66
2023-05-03T07:20:41.982Z,0.67
2023-05-03T07:21:42.083Z,0.72
2023-05-03T07:22:42.071Z,0.74
2023-05-03T07:23:42.249Z,0.77
2023-05-03T07:24:42.281Z,0.81
2023-05-03T07:25:42.093Z,0.84
2023-05-03T07:26:43.751Z,0.88
2023-05-03T07:27:42.171Z,0.89
2023-05-03T07:28:42.173Z,0.87
2023-05-03T07:29:42.309Z,0.93
2023-05-03T07:30:42.310Z,1.01
2023-05-03T07:31:42.365Z,0.95
2023-05-03T07:32:42.940Z,0.90
2023-05-03T07:33:42.572Z,0.87
2023-05-03T07:34:42.500Z,0.97
2023-05-03T07:35:42.517Z,1.05
2023-05-03T07:36:42.591Z,1.06
2023-05-03T07:37:42.545Z,1.16
2023-05-03T07:38:42.553Z,1.17
2023-05-03T07:39:42.525Z,1.26
2023-05-03T07:40:42.594Z,1.25
2023-05-03T07:41:42.561Z,1.29
2023-05-03T07:42:42.582Z,1.33
2023-05-03T07:43:42.729Z,1.31
2023-05-03T07:44:42.806Z,1.36
2023-05-03T07:45:42.759Z,1.42
2023-05-03T07:46:43.244Z,1.41
2023-05-03T07:47:43.306Z,1.44
2023-05-03T07:48:43.273Z,1.47
2023-05-03T07:49:42.935Z,1.48
2023-05-03T07:50:43.720Z,1.49
2023-05-03T07:51:43.289Z,1.46
2023-05-03T07:52:43.235Z,1.44
2023-05-03T07:53:43.201Z,1.47
2023-05-03T07:54:43.394Z,1.45
2023-05-03T07:55:43.288Z,1.48
2023-05-03T07:56:43.207Z,1.45
2023-05-03T07:57:43.082Z,1.44
2023-05-03T07:58:44.977Z,1.41
2023-05-03T07:59:43.021Z,1.42
2023-05-03T08:00:43.062Z,1.39
2023-05-03T08:01:43.025Z,1.37
2023-05-03T08:02:43.777Z,1.39
2023-05-03T08:03:43.337Z,1.32
2023-05-03T08:04:43.244Z,1.30
2023-05-03T08:05:43.340Z,1.29
2023-05-03T08:06:43.124Z,1.24
2023-05-03T08:07:42.993Z,1.04
2023-05-03T08:08:43.003Z,0.99
2023-05-03T08:09:42.985Z,0.95
2023-05-03T08:10:43.015Z,0.92
2023-05-03T08:11:44.324Z,0.91
2023-05-03T08:12:42.996Z,0.81
2023-05-03T08:13:42.995Z,0.79
2023-05-03T08:14:42.945Z,0.75
2023-05-03T08:15:42.985Z,0.72
2023-05-03T08:16:43.005Z,0.74
2023-05-03T08:17:43.070Z,0.63
2023-05-03T08:18:42.924Z,0.58
2023-05-03T08:19:43.055Z,0.54
2023-05-03T08:20:42.886Z,0.64
2023-05-03T08:21:42.892Z,0.65
2023-05-03T08:22:42.895Z,0.55
2023-05-03T08:23:42.902Z,0.56
2023-05-03T08:24:43.285Z,0.60
2023-05-03T08:25:43.306Z,0.61
2023-05-03T08:26:42.873Z,0.67
2023-05-03T08:27:43.293Z,0.71
2023-05-03T08:28:43.373Z,0.73
2023-05-03T08:29:42.836Z,0.64
2023-05-03T08:30:42.876Z,0.54
2023-05-03T08:31:42.882Z,0.52
2023-05-03T08:32:42.815Z,0.48
2023-05-03T08:33:43.272Z,0.51
2023-05-03T08:34:42.849Z,0.50
2023-05-03T08:35:42.844Z,0.51
2023-05-03T08:36:42.810Z,0.49
2023-05-03T08:37:42.872Z,0.51
2023-05-03T08:38:42.902Z,0.50
2023-05-03T08:39:42.907Z,0.49
2023-05-03T08:40:42.934Z,0.50
2023-05-03T08:41:43.305Z,0.55
2023-05-03T08:42:42.977Z,0.61
2023-05-03T08:43:43.012Z,0.66
2023-05-03T08:44:43.000Z,0.77
2023-05-03T08:45:43.021Z,0.82
2023-05-03T08:46:43.077Z,0.92
2023-05-03T08:47:43.126Z,1.00
2023-05-03T08:48:43.154Z,0.99
2023-05-03T08:49:43.181Z,1.05
2023-05-03T08:50:43.352Z,1.07
2023-05-03T08:51:43.249Z,1.18
2023-05-03T08:52:43.293Z,1.24
2023-05-03T08:53:43.285Z,1.31
2023-05-03T08:54:44.739Z,1.34
2023-05-03T08:55:43.794Z,1.33
2023-05-03T08:56:43.333Z,1.39
2023-05-03T08:57:43.331Z,1.39
2023-05-03T08:58:43.457Z,1.50
2023-05-03T08:59:43.341Z,1.53
2023-05-03T09:00:43.351Z,1.61
2023-05-03T09:01:43.957Z,1.52
2023-05-03T09:02:43.535Z,1.70
2023-05-03T09:03:43.442Z,1.70
2023-05-03T09:04:43.385Z,1.84
2023-05-03T09:05:43.400Z,1.76
2023-05-03T09:06:43.441Z,1.71
2023-05-03T09:07:43.398Z,1.76
2023-05-03T09:08:43.813Z,1.81
2023-05-03T09:09:45.573Z,1.98
2023-05-03T09:10:43.502Z,2.10
2023-05-03T09:11:43.498Z,2.21
2023-05-03T09:12:43.501Z,2.31
2023-05-03T09:13:43.533Z,2.25
2023-05-03T09:14:43.479Z,2.42
2023-05-03T09:15:43.454Z,2.40
2023-05-03T09:16:43.556Z,2.37
2023-05-03T09:17:43.480Z,2.62
2023-05-03T09:18:43.452Z,2.74
2023-05-03T09:19:43.386Z,2.77
2023-05-03T09:20:43.443Z,2.91
2023-05-03T09:21:43.433Z,3.05
2023-05-03T09:22:43.390Z,3.24
2023-05-03T09:23:43.437Z,3.38
2023-05-03T09:24:43.370Z,3.56
2023-05-03T09:25:43.348Z,3.66
2023-05-03T09:26:43.400Z,3.60
2023-05-03T09:27:43.412Z,3.73
2023-05-03T09:28:43.427Z,3.05
2023-05-03T09:29:43.407Z,2.75
2023-05-03T09:30:43.837Z,2.59
2023-05-03T09:31:43.401Z,2.29
2023-05-03T09:32:43.364Z,1.93
2023-05-03T09:33:43.320Z,2.03
2023-05-03T09:34:43.330Z,2.18
2023-05-03T09:35:43.794Z,1.93
2023-05-03T09:36:44.533Z,1.39
2023-05-03T09:37:43.314Z,1.39
2023-05-03T09:38:43.289Z,1.51
2023-05-03T09:39:43.452Z,1.53
2023-05-03T09:40:43.283Z,1.61
2023-05-03T09:41:43.292Z,1.62
2023-05-03T09:42:43.299Z,1.73
2023-05-03T09:43:43.283Z,1.86
2023-05-03T09:44:43.248Z,1.93
2023-05-03T09:45:43.340Z,2.00
2023-05-03T09:46:43.264Z,1.91
2023-05-03T09:47:43.254Z,1.98
2023-05-03T09:48:43.241Z,1.98
2023-05-03T09:49:43.272Z,1.99
2023-05-03T09:50:43.341Z,2.08
2023-05-03T09:51:43.189Z,2.12
2023-05-03T09:52:43.263Z,2.12
2023-05-03T09:53:43.292Z,2.30
2023-05-03T09:54:43.298Z,2.43
2023-05-03T09:55:43.338Z,2.53
2023-05-03T09:56:43.317Z,2.60
2023-05-03T09:57:43.431Z,2.74
2023-05-03T09:58:43.423Z,2.78
2023-05-03T09:59:43.416Z,2.82
2023-05-03T10:00:43.416Z,2.92
2023-05-03T10:01:43.453Z,2.97
2023-05-03T10:02:43.452Z,3.20
2023-05-03T10:03:43.530Z,3.28
2023-05-03T10:04:43.525Z,3.42
2023-05-03T10:05:43.802Z,3.59
2023-05-03T10:06:43.853Z,3.80
2023-05-03T10:07:43.533Z,4.09
2023-05-03T10:08:43.505Z,4.18
2023-05-03T10:09:43.829Z,4.36
2023-05-03T10:10:43.787Z,4.47
2023-05-03T10:11:43.661Z,4.69
2023-05-03T10:12:43.790Z,4.92
2023-05-03T10:13:43.801Z,4.96
2023-05-03T10:14:43.830Z,4.63
2023-05-03T10:15:43.671Z,4.38
2023-05-03T10:16:43.623Z,4.67
2023-05-03T10:17:48.259Z,4.81
2023-05-03T10:18:44.611Z,4.80
2023-05-03T10:19:44.316Z,4.67
2023-05-03T10:20:43.579Z,4.62
2023-05-03T10:21:43.802Z,4.65
2023-05-03T10:22:43.618Z,4.83
2023-05-03T10:23:43.820Z,4.74
2023-05-03T10:24:43.576Z,4.88
2023-05-03T10:25:43.814Z,4.77
2023-05-03T10:26:43.647Z,4.77
2023-05-03T10:27:43.617Z,4.50
2023-05-03T10:28:43.556Z,4.54
2023-05-03T10:29:43.646Z,4.23
2023-05-03T10:30:43.821Z,4.25
2023-05-03T10:31:43.624Z,4.43
2023-05-03T10:32:45.325Z,4.51
2023-05-03T10:33:43.528Z,4.41
2023-05-03T10:34:44.549Z,4.37
2023-05-03T10:35:43.488Z,4.52
2023-05-03T10:36:49.947Z,4.65
2023-05-03T10:37:44.486Z,4.66
2023-05-03T10:38:43.478Z,4.74
2023-05-03T10:39:44.014Z,4.93
2023-05-03T10:40:43.641Z,5.22
2023-05-03T10:41:43.440Z,5.65
2023-05-03T10:42:43.433Z,5.84
2023-05-03T10:43:43.437Z,6.13
2023-05-03T10:44:43.403Z,6.32
2023-05-03T10:45:43.815Z,6.25
2023-05-03T10:46:43.571Z,6.33
2023-05-03T10:47:43.662Z,6.44
2023-05-03T10:48:43.674Z,6.75
2023-05-03T10:49:43.700Z,7.01
2023-05-03T10:50:43.804Z,7.24
2023-05-03T10:51:43.855Z,7.24
2023-05-03T10:52:43.923Z,7.33
2023-05-03T10:53:43.905Z,7.36
2023-05-03T10:54:43.995Z,7.69
2023-05-03T10:55:44.024Z,7.92
2023-05-03T10:56:44.094Z,8.02
2023-05-03T10:57:44.150Z,8.24
2023-05-03T10:58:44.211Z,8.61
2023-05-03T10:59:44.233Z,8.77
2023-05-03T11:00:44.303Z,9.04
2023-05-03T11:01:44.467Z,9.14
2023-05-03T11:02:44.419Z,9.29
2023-05-03T11:03:44.398Z,9.57
2023-05-03T11:04:44.524Z,9.64
2023-05-03T11:05:44.465Z,9.76
2023-05-03T11:06:44.571Z,10.05
2023-05-03T11:07:44.525Z,10.31
2023-05-03T11:08:44.584Z,10.41
2023-05-03T11:09:46.400Z,10.72
2023-05-03T11:10:44.797Z,11.13
2023-05-03T11:11:44.626Z,11.14
2023-05-03T11:12:44.607Z,11.98
2023-05-03T11:13:44.679Z,12.01
2023-05-03T11:14:44.553Z,12.44
2023-05-03T11:15:46.317Z,12.66
2023-05-03T11:16:44.587Z,12.68
2023-05-03T11:17:44.544Z,12.78
2023-05-03T11:18:44.553Z,12.98
2023-05-03T11:19:44.910Z,12.49
2023-05-03T11:20:44.940Z,8.89
2023-05-03T11:21:46.322Z,8.10
2023-05-03T11:22:44.854Z,8.11
2023-05-03T11:23:44.717Z,7.32
2023-05-03T11:24:44.636Z,6.21
2023-05-03T11:25:44.700Z,5.91
2023-05-03T11:26:44.743Z,5.28
2023-05-03T11:27:46.579Z,4.74
2023-05-03T11:28:45.044Z,4.44
2023-05-03T11:29:44.780Z,4.23
2023-05-03T11:30:44.777Z,3.90
2023-05-03T11:31:44.848Z,3.84
2023-05-03T11:32:44.794Z,3.67
2023-05-03T11:33:46.539Z,3.59
2023-05-03T11:34:44.708Z,3.59
2023-05-03T11:35:44.771Z,3.42
2023-05-03T11:36:44.721Z,3.20
2023-05-03T11:37:44.737Z,3.02
2023-05-03T11:38:44.734Z,2.90
2023-05-03T11:39:44.715Z,2.64
2023-05-03T11:40:44.706Z,2.47
2023-05-03T11:41:44.715Z,2.39
2023-05-03T11:42:44.764Z,2.14
2023-05-03T11:43:44.733Z,2.12
2023-05-03T11:44:44.658Z,1.99
2023-05-03T11:45:44.934Z,1.94
2023-05-03T11:46:44.800Z,1.83
2023-05-03T11:47:44.723Z,1.69
2023-05-03T11:48:44.682Z,1.62
2023-05-03T11:49:44.680Z,1.24
2023-05-03T11:50:44.643Z,1.06
2023-05-03T11:51:47.612Z,0.90
2023-05-03T11:52:44.690Z,0.78
2023-05-03T11:53:44.607Z,0.64
2023-05-03T11:54:44.643Z,0.64
2023-05-03T11:55:44.604Z,0.60
2023-05-03T11:56:44.610Z,0.57
2023-05-03T11:57:44.570Z,0.57
2023-05-03T11:58:44.625Z,0.52
2023-05-03T11:59:44.590Z,0.48
2023-05-03T12:00:44.618Z,0.52
2023-05-03T12:01:44.582Z,0.51
2023-05-03T12:02:44.786Z,0.50
2023-05-03T12:03:44.777Z,0.55
2023-05-03T12:04:46.667Z,0.65
2023-05-03T12:05:45.047Z,0.73
2023-05-03T12:06:45.793Z,0.76
2023-05-03T12:07:44.776Z,0.85
2023-05-03T12:08:45.374Z,0.85
2023-05-03T12:09:51.284Z,0.86
2023-05-03T12:10:45.893Z,0.86
2023-05-03T12:11:45.302Z,0.80
2023-05-03T12:12:48.894Z,0.81
2023-05-03T12:13:47.066Z,0.86
2023-05-03T12:14:45.602Z,0.86
2023-05-03T12:15:47.374Z,0.84
2023-05-03T12:16:45.602Z,0.85
2023-05-03T12:17:45.458Z,0.84
2023-05-03T12:18:46.708Z,0.83
2023-05-03T12:19:44.919Z,0.81
2023-05-03T12:21:29.580Z,0.81
2023-05-03T12:21:54.109Z,0.81
2023-05-03T12:22:45.840Z,0.85
2023-05-03T12:23:45.934Z,0.84
2023-05-03T12:24:45.396Z,0.77
2023-05-03T12:25:45.126Z,0.78
2023-05-03T12:26:44.512Z,0.77
2023-05-03T12:27:46.115Z,0.77
2023-05-03T12:28:45.424Z,0.82
2023-05-03T12:29:47.109Z,0.86
2023-05-03T12:30:45.852Z,0.87
2023-05-03T12:31:44.708Z,0.86
2023-05-03T12:32:44.654Z,0.87
2023-05-03T12:33:51.421Z,0.89
2023-05-03T12:35:02.136Z,0.87
2023-05-03T12:35:47.681Z,0.87
2023-05-03T12:36:44.561Z,0.87
2023-05-03T12:37:44.433Z,0.90
2023-05-03T12:38:44.471Z,0.95
2023-05-03T12:39:47.933Z,0.96
2023-05-03T12:40:45.783Z,0.87
2023-05-03T12:42:44.366Z,0.86
2023-05-03T12:43:44.428Z,0.91
2023-05-03T12:44:47.253Z,0.89
2023-05-03T12:45:46.851Z,0.86
2023-05-03T12:46:46.044Z,0.74
2023-05-03T12:47:44.964Z,0.84
2023-05-03T12:48:46.626Z,0.87
2023-05-03T12:49:46.151Z,0.88
2023-05-03T12:50:45.473Z,0.86
2023-05-03T12:51:51.284Z,0.87
2023-05-03T12:52:45.717Z,0.66
2023-05-03T12:53:47.043Z,0.73
2023-05-03T12:54:48.218Z,0.73
2023-05-03T12:55:44.974Z,0.72
2023-05-03T12:56:47.855Z,0.75
2023-05-03T12:57:45.913Z,0.85
2023-05-03T12:59:00.898Z,0.72
2023-05-03T12:59:51.784Z,0.77
2023-05-03T13:01:15.914Z,0.80
2023-05-03T13:03:48.782Z,0.85
2023-05-03T13:05:45.093Z,0.84
2023-05-03T13:06:44.515Z,0.75
2023-05-03T13:07:44.512Z,0.80
2023-05-03T13:08:50.227Z,0.87
2023-05-03T13:10:44.246Z,0.86
2023-05-03T13:11:45.088Z,0.82
2023-05-03T13:12:44.119Z,0.82
2023-05-03T13:13:44.121Z,0.79
2023-05-03T13:14:44.070Z,0.83
2023-05-03T13:15:44.077Z,0.84
2023-05-03T13:16:44.122Z,0.84
2023-05-03T13:17:46.718Z,0.84
2023-05-03T13:18:44.057Z,0.86
2023-05-03T13:19:44.062Z,0.89
2023-05-03T13:20:44.055Z,0.76
2023-05-03T13:21:44.082Z,0.84
2023-05-03T13:22:44.091Z,0.86
2023-05-03T13:23:44.874Z,0.90